This is the latest recevied weather packets stored in our database for station/object KD2DXJ. If no packets are shown the sender has not sent any weather packets the latest 10 day(s).
| Time | Temp. | Humidity | Pressure | Rain* | Wind** | Luminosity | Snow |
|---|---|---|---|---|---|---|---|
| 1777927203 | 20.56° C | 47% | 1003.2 hPa | 0 mm | - | 176 W/m² | - |
| 1777926900 | 20.56° C | 46% | 1003.3 hPa | 0 mm | - | 323 W/m² | - |
| 1777926596 | 21.11° C | 45% | 1003.3 hPa | 0 mm | - | 351 W/m² | - |
| 1777926293 | 20.56° C | 45% | 1003.3 hPa | 0 mm | - | 356 W/m² | - |
| 1777925990 | 20.56° C | 45% | 1003.4 hPa | 0 mm | - | 384 W/m² | - |
| 1777925687 | 20.56° C | 44% | 1003.5 hPa | 0 mm | - | 410 W/m² | - |
| 1777925384 | 20.56° C | 44% | 1003.4 hPa | 0 mm | - | 412 W/m² | - |
| 1777925081 | 20.56° C | 43% | 1003.6 hPa | 0 mm | - | 427 W/m² | - |
| 1777924778 | 20.56° C | 46% | 1003.5 hPa | 0 mm | - | 444 W/m² | - |
| 1777924474 | 20° C | 46% | 1003.6 hPa | 0 mm | - | 466 W/m² | - |
| 1777924170 | 20° C | 45% | 1003.8 hPa | 0 mm | - | 392 W/m² | - |
| 1777923866 | 20° C | 47% | 1003.7 hPa | 0 mm | - | 427 W/m² | - |
| 1777923562 | 19.44° C | 47% | 1003.8 hPa | 0 mm | - | 369 W/m² | - |
| 1777923260 | 20° C | 46% | 1003.9 hPa | 0 mm | - | 425 W/m² | - |
| 1777922959 | 19.44° C | 48% | 1003.7 hPa | 0 mm | - | 469 W/m² | - |
| 1777922655 | 19.44° C | 46% | 1003.8 hPa | 0 mm | - | 398 W/m² | - |
| 1777922354 | 19.44° C | 46% | 1003.8 hPa | 0 mm | - | 460 W/m² | - |
| 1777922052 | 19.44° C | 46% | 1003.9 hPa | 0 mm | - | 501 W/m² | - |
| 1777921747 | 19.44° C | 47% | 1004 hPa | 0 mm | - | 510 W/m² | - |
| 1777921443 | 19.44° C | 46% | 1004 hPa | 0 mm | - | 522 W/m² | - |
| 1777921140 | 19.44° C | 50% | 1004 hPa | 0 mm | - | 514 W/m² | - |
| 1777920837 | 20° C | 47% | 1004.3 hPa | 0 mm | - | 522 W/m² | - |
| 1777920533 | 20° C | 48% | 1003.9 hPa | 0 mm | - | 554 W/m² | - |
| 1777920229 | 19.44° C | 47% | 1003.8 hPa | 0 mm | - | 565 W/m² | - |
| 1777919925 | 20° C | 46% | 1003.8 hPa | 0 mm | - | 587 W/m² | - |
* Rain latest hour (hover to see other rain measurements)
** Current wind speed in m/s (hover to see current wind gust speed)